Time;durP1;ratioP1;P1;durP2;ratioP2;P2;SDS_P1;SDS_P2;PMS_P1;PMS_P2;Temp;Humidity;BMP_temperature;BMP_pressure;BME280_temperature;BME280_humidity;BME280_pressure;Samples;Min_cycle;Max_cycle;Signal;HPM_P1;HPM_P2
2023/05/25 00:03:29;;;;;;;7.65;2.95;;;23.80;77.40;;;;;;10927154;32;20435;-72
2023/05/25 00:09:31;;;;;;;4.87;2.92;;;23.80;77.40;;;;;;10945896;32;20477;-72
2023/05/25 00:15:33;;;;;;;5.37;3.20;;;23.80;78.00;;;;;;10948651;32;20038;-71
2023/05/25 00:21:39;;;;;;;3.87;2.42;;;23.70;78.20;;;;;;10949066;32;20038;-71
2023/05/25 00:27:41;;;;;;;6.57;3.47;;;23.60;78.20;;;;;;10838199;32;20028;-70
2023/05/25 00:33:43;;;;;;;5.68;3.55;;;23.60;78.00;;;;;;10793454;33;20020;-70
2023/05/25 00:39:44;;;;;;;5.10;3.33;;;23.60;77.90;;;;;;10793313;33;20021;-70
2023/05/25 00:45:47;;;;;;;6.18;4.12;;;23.50;77.90;;;;;;10825805;32;20064;-70
2023/05/25 00:51:52;;;;;;;6.00;4.18;;;23.50;77.80;;;;;;10792966;33;20346;-71
2023/05/25 00:57:56;;;;;;;6.40;4.93;;;23.30;78.10;;;;;;10792224;33;20097;-71
2023/05/25 01:04:00;;;;;;;6.82;4.70;;;23.10;78.80;;;;;;10792675;33;20012;-73
2023/05/25 01:10:05;;;;;;;7.20;4.40;;;22.80;79.30;;;;;;10792413;33;20388;-72
2023/05/25 01:16:08;;;;;;;9.05;5.57;;;22.70;79.90;;;;;;10829036;32;20024;-72
2023/05/25 01:22:25;;;;;;;6.12;4.12;;;22.60;79.80;;;;;;10790642;33;20039;-72
2023/05/25 01:28:39;;;;;;;5.18;3.45;;;22.50;80.10;;;;;;10790491;33;20047;-73
2023/05/25 01:34:42;;;;;;;8.38;6.03;;;22.60;80.00;;;;;;10840638;32;20315;-73
2023/05/25 01:40:44;;;;;;;5.18;3.55;;;22.60;79.80;;;;;;10842370;32;20393;-71
2023/05/25 01:46:52;;;;;;;4.87;3.20;;;22.50;80.00;;;;;;10790784;33;20074;-71
2023/05/25 01:53:18;;;;;;;4.53;3.00;;;22.60;80.00;;;;;;10787191;33;20020;-70
2023/05/25 01:59:22;;;;;;;4.78;3.10;;;22.70;79.80;;;;;;10789584;33;20040;-71
2023/05/25 02:05:26;;;;;;;5.43;3.50;;;22.70;79.70;;;;;;10840428;32;20148;-72
2023/05/25 02:11:29;;;;;;;5.00;3.35;;;22.70;79.30;;;;;;10839655;32;20035;-71
2023/05/25 02:17:31;;;;;;;4.25;3.20;;;22.70;79.20;;;;;;10789138;33;20347;-71
2023/05/25 02:23:33;;;;;;;8.02;3.30;;;22.80;79.10;;;;;;10791722;32;20025;-70
2023/05/25 02:29:35;;;;;;;3.87;2.42;;;22.80;78.90;;;;;;10942454;32;20031;-70
2023/05/25 02:35:37;;;;;;;5.82;4.10;;;22.70;79.00;;;;;;10941542;32;20085;-70
2023/05/25 02:41:39;;;;;;;5.47;3.50;;;22.70;79.40;;;;;;10943775;32;20058;-69
2023/05/25 02:47:41;;;;;;;5.72;3.85;;;22.60;80.00;;;;;;10940278;32;20026;-69
2023/05/25 02:53:44;;;;;;;11.40;3.90;;;22.70;80.40;;;;;;10943521;32;20011;-70
2023/05/25 02:59:46;;;;;;;4.72;3.60;;;22.60;80.60;;;;;;10942034;32;20014;-69
2023/05/25 03:05:48;;;;;;;5.20;3.50;;;22.50;80.90;;;;;;10942495;32;20031;-69
2023/05/25 03:11:50;;;;;;;7.95;3.53;;;22.40;81.20;;;;;;10942446;32;20389;-69
2023/05/25 03:17:59;;;;;;;7.28;4.03;;;22.50;80.90;;;;;;10928354;32;20020;-69
2023/05/25 03:24:06;;;;;;;4.20;2.83;;;22.50;80.30;;;;;;10942654;32;20045;-70
2023/05/25 03:30:08;;;;;;;7.95;5.62;;;22.50;80.10;;;;;;10942637;32;20027;-69
2023/05/25 03:36:12;;;;;;;7.12;4.82;;;22.40;79.90;;;;;;10942555;32;20011;-69
2023/05/25 03:42:16;;;;;;;6.32;4.90;;;22.40;79.80;;;;;;10943430;32;20330;-69
2023/05/25 03:48:18;;;;;;;6.93;3.92;;;22.40;80.10;;;;;;10949331;32;20026;-69
2023/05/25 03:54:20;;;;;;;5.37;3.60;;;22.30;80.70;;;;;;10950023;32;20326;-70
2023/05/25 04:00:23;;;;;;;6.32;3.50;;;22.30;80.60;;;;;;10949525;32;20050;-70
2023/05/25 04:06:25;;;;;;;4.97;3.10;;;22.30;80.40;;;;;;10949220;32;20042;-70
2023/05/25 04:12:28;;;;;;;5.10;3.05;;;22.30;80.10;;;;;;10934047;32;20062;-70
2023/05/25 04:18:30;;;;;;;6.93;3.30;;;22.30;80.00;;;;;;10946421;32;20035;-70
2023/05/25 04:24:38;;;;;;;8.48;2.78;;;22.30;80.40;;;;;;10947426;32;20049;-70
2023/05/25 04:30:40;;;;;;;4.95;2.53;;;22.30;80.90;;;;;;10934420;32;20058;-69
2023/05/25 04:36:43;;;;;;;4.15;3.03;;;22.30;81.10;;;;;;10947340;32;20023;-69
2023/05/25 04:42:46;;;;;;;3.85;2.47;;;22.30;81.10;;;;;;10944711;32;20027;-70
2023/05/25 04:48:49;;;;;;;4.75;2.85;;;22.20;81.30;;;;;;10934625;32;20026;-70
2023/05/25 04:54:53;;;;;;;4.30;2.85;;;22.20;81.60;;;;;;10944605;32;20026;-70
2023/05/25 05:00:55;;;;;;;5.87;2.42;;;22.20;81.80;;;;;;10934729;32;20354;-70
2023/05/25 05:06:58;;;;;;;4.57;3.10;;;22.20;81.70;;;;;;10946873;32;20057;-70
2023/05/25 05:13:10;;;;;;;4.93;3.72;;;22.10;81.60;;;;;;10941866;32;20015;-73
2023/05/25 05:19:12;;;;;;;6.68;3.10;;;22.00;81.80;;;;;;10933067;32;20031;-70
2023/05/25 05:25:15;;;;;;;5.50;3.85;;;22.00;81.70;;;;;;10932559;32;20026;-69
2023/05/25 05:31:18;;;;;;;4.80;3.30;;;22.10;81.70;;;;;;10946403;32;20050;-72
2023/05/25 05:37:20;;;;;;;6.05;3.65;;;22.20;81.70;;;;;;10946319;32;20027;-71
2023/05/25 05:43:23;;;;;;;8.68;4.65;;;22.20;81.50;;;;;;10929955;32;20321;-70
2023/05/25 05:49:27;;;;;;;6.72;4.05;;;22.30;81.40;;;;;;10944807;32;20053;-71
2023/05/25 05:55:30;;;;;;;8.20;4.22;;;22.30;80.90;;;;;;10945084;32;20019;-72
2023/05/25 06:01:32;;;;;;;6.03;3.90;;;22.50;80.50;;;;;;10912312;32;20035;-73
2023/05/25 06:07:35;;;;;;;7.40;4.40;;;22.50;80.20;;;;;;10927653;32;20057;-70
2023/05/25 06:13:38;;;;;;;4.10;2.90;;;22.60;80.00;;;;;;10960786;32;20054;-70
2023/05/25 06:19:41;;;;;;;4.55;3.20;;;22.40;80.20;;;;;;10968307;32;20049;-73
2023/05/25 06:25:47;;;;;;;4.90;3.35;;;22.30;80.50;;;;;;10979482;32;20015;-73
2023/05/25 06:31:49;;;;;;;3.50;2.45;;;22.30;80.50;;;;;;10981364;32;20325;-72
2023/05/25 06:37:52;;;;;;;3.92;2.10;;;22.40;80.70;;;;;;10981809;32;20026;-73
2023/05/25 06:43:54;;;;;;;5.43;2.87;;;22.40;79.80;;;;;;10981661;32;20023;-71
2023/05/25 06:50:01;;;;;;;6.75;4.65;;;22.30;79.10;;;;;;10981263;32;20066;-73
2023/05/25 06:56:03;;;;;;;6.30;3.50;;;22.20;79.60;;;;;;10962932;32;20031;-73
2023/05/25 07:02:05;;;;;;;6.00;3.62;;;22.10;80.00;;;;;;10980933;32;20049;-72
2023/05/25 07:08:07;;;;;;;4.07;2.92;;;22.10;80.20;;;;;;10980035;32;20046;-71
2023/05/25 07:14:10;;;;;;;6.65;4.40;;;22.20;79.80;;;;;;10980556;32;20015;-72
2023/05/25 07:20:12;;;;;;;5.25;3.40;;;22.20;78.70;;;;;;10965647;32;20023;-71
2023/05/25 07:26:14;;;;;;;7.57;2.80;;;22.20;79.00;;;;;;10753980;27;6969308;-71
2023/05/25 07:32:16;;;;;;;3.75;2.58;;;22.50;78.90;;;;;;10941480;32;20129;-71
2023/05/25 07:38:18;;;;;;;4.28;2.70;;;22.70;78.70;;;;;;10940009;32;20307;-71
2023/05/25 07:44:20;;;;;;;7.00;3.70;;;22.80;79.10;;;;;;10939738;32;20027;-72
2023/05/25 07:50:22;;;;;;;5.47;3.35;;;22.90;79.00;;;;;;10925998;32;20027;-72
2023/05/25 07:56:25;;;;;;;5.78;4.32;;;23.00;78.90;;;;;;10910561;32;20049;-71
2023/05/25 08:02:27;;;;;;;3.83;3.08;;;23.10;79.60;;;;;;10941419;32;20381;-73
2023/05/25 08:08:30;;;;;;;4.25;2.72;;;23.10;78.60;;;;;;10941204;32;20053;-73
2023/05/25 08:14:32;;;;;;;3.58;2.47;;;23.30;78.50;;;;;;10939143;32;20023;-73
2023/05/25 08:20:35;;;;;;;5.43;2.53;;;23.50;78.00;;;;;;10939114;32;20046;-73
2023/05/25 08:26:39;;;;;;;5.60;3.83;;;23.70;76.80;;;;;;10937258;32;20487;-70
2023/05/25 08:32:41;;;;;;;4.78;3.53;;;24.00;77.30;;;;;;10947278;32;20389;-73
2023/05/25 08:38:43;;;;;;;5.95;2.80;;;23.90;76.70;;;;;;10944397;32;20023;-72
2023/05/25 08:44:45;;;;;;;7.28;3.37;;;23.90;76.70;;;;;;10948227;32;20197;-72
2023/05/25 08:50:48;;;;;;;2.40;2.00;;;23.80;76.50;;;;;;10916330;32;20537;-72
2023/05/25 08:56:54;;;;;;;4.50;2.87;;;23.80;76.50;;;;;;10944731;32;20015;-74
2023/05/25 09:03:08;;;;;;;3.33;2.50;;;23.70;77.00;;;;;;10947132;32;20038;-71
2023/05/25 09:09:31;;;;;;;3.30;1.92;;;23.70;77.00;;;;;;10947317;32;20416;-72
2023/05/25 09:15:34;;;;;;;6.20;2.10;;;23.80;76.60;;;;;;10943807;32;20027;-72
2023/05/25 09:21:36;;;;;;;3.30;2.17;;;24.00;76.20;;;;;;10945501;32;20057;-73
2023/05/25 09:27:38;;;;;;;5.75;3.58;;;24.20;75.90;;;;;;10944488;32;20058;-72
2023/05/25 09:33:41;;;;;;;3.65;2.65;;;24.50;74.50;;;;;;10945312;32;20027;-74
2023/05/25 09:39:44;;;;;;;5.75;3.08;;;24.80;73.00;;;;;;10943197;32;20019;-73
2023/05/25 09:45:46;;;;;;;6.07;3.90;;;25.00;70.70;;;;;;10944589;32;20020;-71
2023/05/25 09:51:48;;;;;;;6.43;3.40;;;24.80;71.00;;;;;;10944443;32;20046;-72
2023/05/25 09:57:54;;;;;;;6.12;2.50;;;24.80;71.70;;;;;;10938065;32;20050;-70
2023/05/25 10:03:58;;;;;;;4.80;3.10;;;24.90;71.80;;;;;;10893027;32;20349;-70
2023/05/25 10:10:05;;;;;;;4.55;2.67;;;24.90;72.60;;;;;;10902685;32;20028;-72
2023/05/25 10:16:11;;;;;;;5.47;2.87;;;25.00;74.50;;;;;;10879724;32;20030;-73
2023/05/25 10:22:32;;;;;;;6.35;4.47;;;25.40;74.20;;;;;;10903732;32;20045;-73
2023/05/25 10:28:36;;;;;;;7.22;4.47;;;25.70;73.10;;;;;;10905394;32;20050;-73
2023/05/25 10:34:39;;;;;;;7.32;3.08;;;25.90;73.20;;;;;;10888903;32;20412;-73
2023/05/25 10:40:49;;;;;;;5.45;3.83;;;25.90;73.30;;;;;;10891455;32;20040;-73
2023/05/25 10:46:52;;;;;;;3.87;2.83;;;26.10;72.30;;;;;;10887961;32;20019;-72
2023/05/25 10:53:02;;;;;;;9.15;3.35;;;26.30;71.50;;;;;;10888762;32;20065;-70
2023/05/25 10:59:04;;;;;;;7.30;3.15;;;26.60;70.90;;;;;;10903849;32;20038;-73
2023/05/25 11:05:49;;;;;;;4.47;2.83;;;26.80;70.10;;;;;;10899387;32;20031;-72
2023/05/25 11:11:51;;;;;;;5.70;4.50;;;27.10;71.00;;;;;;10716289;33;20025;-72
2023/05/25 11:17:59;;;;;;;4.37;3.35;;;27.10;72.40;;;;;;10730629;33;20070;-72
2023/05/25 11:24:10;;;;;;;5.72;3.67;;;27.20;72.10;;;;;;10751409;33;20387;-72
2023/05/25 11:30:17;;;;;;;3.62;2.70;;;27.50;71.30;;;;;;10740196;33;20048;-72
2023/05/25 11:36:21;;;;;;;4.43;2.77;;;27.60;70.10;;;;;;10752405;32;20051;-73
2023/05/25 11:42:25;;;;;;;5.57;3.62;;;27.80;67.50;;;;;;10799484;32;20423;-71
2023/05/25 11:48:26;;;;;;;3.87;2.75;;;28.00;68.70;;;;;;10941095;32;20011;-72
2023/05/25 11:54:29;;;;;;;5.80;3.12;;;28.00;70.30;;;;;;10925216;32;20023;-71
2023/05/25 12:00:31;;;;;;;3.33;2.47;;;28.00;68.20;;;;;;10938160;32;20352;-73
2023/05/25 12:06:35;;;;;;;3.90;2.72;;;28.30;67.20;;;;;;10931391;32;20341;-74
2023/05/25 12:13:00;;;;;;;3.95;2.47;;;28.60;66.80;;;;;;10934481;32;20070;-73
2023/05/25 12:19:03;;;;;;;6.90;4.12;;;28.60;66.80;;;;;;10914099;32;20348;-72
2023/05/25 12:25:07;;;;;;;6.20;3.87;;;28.60;66.40;;;;;;10946666;32;20042;-73
2023/05/25 12:31:22;;;;;;;6.18;3.05;;;28.40;65.50;;;;;;10945121;32;20027;-73
2023/05/25 12:37:24;;;;;;;7.40;3.50;;;28.50;64.00;;;;;;10943013;32;20015;-73
2023/05/25 12:43:39;;;;;;;4.60;2.72;;;28.60;64.00;;;;;;10944707;32;20053;-72
2023/05/25 12:49:46;;;;;;;4.18;2.60;;;28.60;62.80;;;;;;10930630;32;20035;-72
2023/05/25 12:55:48;;;;;;;3.78;2.65;;;28.70;62.40;;;;;;10946387;32;20039;-73
2023/05/25 13:01:50;;;;;;;6.28;3.37;;;28.50;62.00;;;;;;10931747;32;20321;-73
2023/05/25 13:07:54;;;;;;;3.97;2.90;;;28.50;62.20;;;;;;10930466;32;20398;-71
2023/05/25 13:13:56;;;;;;;4.80;2.28;;;28.50;61.80;;;;;;10907656;32;20019;-72
2023/05/25 13:19:58;;;;;;;3.10;2.28;;;28.30;62.80;;;;;;10894645;32;20047;-73
2023/05/25 13:26:00;;;;;;;9.07;2.30;;;28.20;63.90;;;;;;10894574;32;20039;-72
2023/05/25 13:32:02;;;;;;;3.33;2.83;;;28.30;62.60;;;;;;10906671;32;20057;-72
2023/05/25 13:38:05;;;;;;;5.55;3.50;;;28.40;62.00;;;;;;10926352;32;20313;-73
2023/05/25 13:44:07;;;;;;;3.25;2.53;;;28.20;61.30;;;;;;10893194;32;20019;-72
2023/05/25 13:50:09;;;;;;;4.90;2.92;;;28.20;60.60;;;;;;10927869;32;20054;-72
2023/05/25 13:56:12;;;;;;;4.40;2.80;;;28.30;59.80;;;;;;10907718;32;20329;-73
2023/05/25 14:02:14;;;;;;;4.47;2.78;;;28.40;58.50;;;;;;10924708;32;20108;-72
2023/05/25 14:08:16;;;;;;;4.78;2.85;;;28.50;58.60;;;;;;10923560;32;20053;-72
2023/05/25 14:14:18;;;;;;;5.60;3.30;;;28.50;58.50;;;;;;10932770;32;20059;-72
2023/05/25 14:20:24;;;;;;;3.08;2.30;;;28.50;58.20;;;;;;10943605;32;20196;-72
2023/05/25 14:26:26;;;;;;;4.12;2.75;;;28.50;58.20;;;;;;10942718;32;20023;-72
2023/05/25 14:32:28;;;;;;;5.30;2.53;;;28.60;58.10;;;;;;10942235;32;20050;-72
2023/05/25 14:38:31;;;;;;;3.95;2.50;;;28.70;57.70;;;;;;10943119;32;20046;-71
2023/05/25 14:44:33;;;;;;;4.50;2.58;;;28.70;58.10;;;;;;10925474;32;20035;-71
2023/05/25 14:50:35;;;;;;;4.32;2.83;;;28.70;58.10;;;;;;10942668;32;20026;-72
2023/05/25 14:56:37;;;;;;;5.60;3.33;;;28.60;57.80;;;;;;10942477;32;20011;-72
2023/05/25 15:02:39;;;;;;;4.32;3.17;;;28.60;58.10;;;;;;10938374;32;20027;-73
2023/05/25 15:08:41;;;;;;;3.65;2.28;;;28.60;57.60;;;;;;10942063;32;20041;-72
2023/05/25 15:14:43;;;;;;;4.85;2.87;;;28.70;57.50;;;;;;10938054;32;20015;-72
2023/05/25 15:20:46;;;;;;;5.25;3.22;;;28.70;57.40;;;;;;10941154;32;20425;-72
2023/05/25 15:26:48;;;;;;;2.95;2.05;;;28.70;57.40;;;;;;10944762;27;20046;-72
2023/05/25 15:32:50;;;;;;;2.22;1.52;;;28.80;57.30;;;;;;10928113;32;20011;-72
2023/05/25 15:38:52;;;;;;;5.80;3.03;;;28.80;57.20;;;;;;10940981;32;20027;-72
2023/05/25 15:44:54;;;;;;;5.10;3.62;;;28.80;57.20;;;;;;10941184;32;20027;-72
2023/05/25 15:50:56;;;;;;;4.30;2.97;;;28.90;56.80;;;;;;10936562;32;20050;-71
2023/05/25 15:57:00;;;;;;;3.95;2.58;;;28.80;56.70;;;;;;10940419;32;20059;-73
2023/05/25 16:03:03;;;;;;;5.43;2.80;;;28.80;56.90;;;;;;10940573;32;20028;-72
2023/05/25 16:09:05;;;;;;;3.58;2.33;;;28.80;56.90;;;;;;10910831;32;20057;-72
2023/05/25 16:15:09;;;;;;;4.70;2.42;;;28.90;56.90;;;;;;10940622;32;20436;-72
2023/05/25 16:21:12;;;;;;;5.50;2.42;;;28.90;56.80;;;;;;10925612;32;20051;-72
2023/05/25 16:27:14;;;;;;;4.85;2.90;;;28.90;56.40;;;;;;10889615;32;20476;-72
2023/05/25 16:33:16;;;;;;;5.28;3.00;;;28.80;56.20;;;;;;10902817;32;20016;-73
2023/05/25 16:39:18;;;;;;;5.18;3.00;;;28.90;56.30;;;;;;10902602;32;20037;-72
2023/05/25 16:45:21;;;;;;;4.18;2.45;;;28.90;56.30;;;;;;10888725;32;20035;-74
2023/05/25 16:51:24;;;;;;;4.62;3.03;;;28.90;55.80;;;;;;10905851;32;20045;-74
2023/05/25 16:57:27;;;;;;;3.67;2.28;;;28.80;55.90;;;;;;10907636;32;20050;-74
2023/05/25 17:03:29;;;;;;;5.55;3.60;;;28.80;55.50;;;;;;10908428;32;20051;-74
2023/05/25 17:09:31;;;;;;;6.68;2.78;;;28.60;55.60;;;;;;10908284;32;20054;-74
2023/05/25 17:15:33;;;;;;;3.50;2.42;;;28.60;55.80;;;;;;10906864;32;20022;-74
2023/05/25 17:21:35;;;;;;;4.35;3.10;;;28.60;55.80;;;;;;10908426;32;20070;-74
2023/05/25 17:27:38;;;;;;;3.78;2.90;;;28.50;56.00;;;;;;10882097;32;20042;-74
2023/05/25 17:33:40;;;;;;;6.22;2.85;;;28.50;56.10;;;;;;10890524;32;20050;-74
2023/05/25 17:39:45;;;;;;;4.15;2.75;;;28.40;56.30;;;;;;10894515;32;20049;-74
2023/05/25 17:45:49;;;;;;;5.07;3.17;;;28.30;56.00;;;;;;10882953;32;20067;-74
2023/05/25 17:52:01;;;;;;;5.47;2.97;;;28.30;56.10;;;;;;10893730;32;20389;-74
2023/05/25 17:58:03;;;;;;;4.47;3.20;;;28.30;55.50;;;;;;10881174;32;20039;-74
2023/05/25 18:04:12;;;;;;;6.05;2.12;;;28.70;54.80;;;;;;10889140;32;20043;-74
2023/05/25 18:10:14;;;;;;;6.72;3.00;;;28.30;55.60;;;;;;10902486;32;20023;-74
2023/05/25 18:16:17;;;;;;;5.47;3.03;;;28.00;56.30;;;;;;10906461;32;20334;-74
2023/05/25 18:22:24;;;;;;;5.35;2.55;;;27.80;56.80;;;;;;10892626;32;20483;-74
2023/05/25 18:28:27;;;;;;;5.37;2.43;;;27.60;57.40;;;;;;10905582;32;20053;-74
2023/05/25 18:34:30;;;;;;;3.72;2.75;;;27.40;58.10;;;;;;10880076;32;20047;-74
2023/05/25 18:40:32;;;;;;;4.82;3.03;;;27.30;58.90;;;;;;10905291;32;20030;-74
2023/05/25 18:46:38;;;;;;;2.85;1.90;;;27.30;59.50;;;;;;10905393;32;20024;-74
2023/05/25 18:52:40;;;;;;;2.80;2.22;;;27.10;60.10;;;;;;10918526;32;20050;-74
2023/05/25 18:58:44;;;;;;;2.67;2.03;;;27.00;60.90;;;;;;10942531;32;20041;-74
2023/05/25 19:04:48;;;;;;;3.87;2.03;;;26.90;61.40;;;;;;10939215;32;20381;-74
2023/05/25 19:10:51;;;;;;;4.90;2.50;;;26.80;61.60;;;;;;10942099;32;20066;-74
2023/05/25 19:16:59;;;;;;;4.32;2.10;;;26.70;62.10;;;;;;10928510;32;20011;-74
2023/05/25 19:23:02;;;;;;;5.90;2.75;;;26.60;62.40;;;;;;10941891;32;20038;-74
2023/05/25 19:29:05;;;;;;;2.67;2.12;;;26.40;62.80;;;;;;10941804;32;20019;-74
2023/05/25 19:35:08;;;;;;;6.37;3.25;;;26.30;63.10;;;;;;10941634;32;20011;-74
2023/05/25 19:41:12;;;;;;;2.75;2.12;;;26.20;63.40;;;;;;10940707;32;20059;-74
2023/05/25 19:47:16;;;;;;;8.95;3.20;;;26.10;63.70;;;;;;10911477;32;20019;-74
2023/05/25 19:53:19;;;;;;;4.90;2.75;;;26.00;63.70;;;;;;10914992;32;20049;-74
2023/05/25 19:59:28;;;;;;;3.03;1.87;;;26.00;64.00;;;;;;10941219;32;20429;-74
2023/05/25 20:05:31;;;;;;;6.00;2.75;;;25.90;64.60;;;;;;10938039;32;20333;-74
2023/05/25 20:11:35;;;;;;;7.37;3.45;;;25.80;65.20;;;;;;10937568;32;20357;-74
2023/05/25 20:17:41;;;;;;;8.82;3.40;;;25.80;65.80;;;;;;10940831;32;20050;-74
2023/05/25 20:23:44;;;;;;;4.47;2.42;;;25.80;66.20;;;;;;10934495;32;20361;-74
2023/05/25 20:29:46;;;;;;;4.07;2.65;;;25.70;66.50;;;;;;10929084;32;20024;-74
2023/05/25 20:35:51;;;;;;;4.00;2.30;;;25.60;67.00;;;;;;10913782;32;20433;-74
2023/05/25 20:41:56;;;;;;;4.45;2.87;;;25.50;67.20;;;;;;10869172;32;20046;-74
2023/05/25 20:48:00;;;;;;;4.95;2.80;;;25.40;67.60;;;;;;10868939;32;20058;-74
2023/05/25 20:54:04;;;;;;;6.40;4.50;;;25.40;67.80;;;;;;10868247;32;20032;-74
2023/05/25 21:00:15;;;;;;;4.40;2.80;;;25.30;67.80;;;;;;10868773;32;20109;-74
2023/05/25 21:06:25;;;;;;;5.28;3.17;;;25.30;68.30;;;;;;10867130;32;20042;-74
2023/05/25 21:12:27;;;;;;;5.10;3.65;;;25.20;68.60;;;;;;10865013;32;20430;-74
2023/05/25 21:18:29;;;;;;;4.62;3.50;;;25.20;69.00;;;;;;10916957;32;20057;-74
2023/05/25 21:24:32;;;;;;;5.32;3.85;;;25.20;69.40;;;;;;10932422;32;20034;-74
2023/05/25 21:30:33;;;;;;;5.85;3.35;;;25.10;69.80;;;;;;10931579;32;20050;-74
2023/05/25 21:36:35;;;;;;;4.87;3.58;;;25.20;70.10;;;;;;10940963;32;20076;-74
2023/05/25 21:42:38;;;;;;;4.60;3.37;;;25.10;70.70;;;;;;10945310;32;20428;-74
2023/05/25 21:48:40;;;;;;;5.57;3.85;;;25.10;71.30;;;;;;10945041;32;20054;-74
2023/05/25 21:54:42;;;;;;;4.93;3.62;;;24.90;71.50;;;;;;10931337;32;20015;-74
2023/05/25 22:00:44;;;;;;;5.15;3.60;;;24.80;71.90;;;;;;10944555;32;20038;-74
2023/05/25 22:06:46;;;;;;;4.97;3.08;;;24.70;72.10;;;;;;10944267;32;20019;-74
2023/05/25 22:12:48;;;;;;;6.68;3.90;;;24.60;72.40;;;;;;10940229;32;20035;-74
2023/05/25 22:18:50;;;;;;;6.10;3.87;;;24.60;73.20;;;;;;10944110;32;20019;-75
2023/05/25 22:24:52;;;;;;;4.97;3.47;;;24.60;73.50;;;;;;10929797;32;20034;-74
2023/05/25 22:30:54;;;;;;;7.30;4.75;;;24.50;73.60;;;;;;10927880;32;20035;-74
2023/05/25 22:36:55;;;;;;;7.78;4.00;;;24.40;74.00;;;;;;10929340;32;20390;-74
2023/05/25 22:42:57;;;;;;;7.22;5.07;;;24.30;74.00;;;;;;10943278;32;20041;-74
2023/05/25 22:48:59;;;;;;;4.62;3.03;;;24.30;74.10;;;;;;10942324;32;20045;-74
2023/05/25 22:55:02;;;;;;;5.87;4.05;;;24.20;74.20;;;;;;10942824;32;20051;-74
2023/05/25 23:01:08;;;;;;;6.10;4.22;;;24.10;74.40;;;;;;10928765;32;20034;-74
2023/05/25 23:07:10;;;;;;;6.78;4.45;;;24.00;74.50;;;;;;10939222;32;20023;-74
2023/05/25 23:13:13;;;;;;;7.20;4.37;;;24.00;74.50;;;;;;10942155;32;20023;-74
2023/05/25 23:19:22;;;;;;;10.18;4.90;;;23.90;74.60;;;;;;10942037;32;20034;-74
2023/05/25 23:25:24;;;;;;;7.00;4.35;;;23.80;74.70;;;;;;10956370;27;20021;-74
2023/05/25 23:31:26;;;;;;;9.48;4.70;;;23.80;74.80;;;;;;11003729;32;20049;-74
2023/05/25 23:37:28;;;;;;;5.93;4.35;;;23.80;75.10;;;;;;11017252;32;20010;-74
2023/05/25 23:43:29;;;;;;;7.12;4.78;;;23.80;75.10;;;;;;11003435;32;20045;-74
2023/05/25 23:49:31;;;;;;;6.35;4.07;;;23.80;75.30;;;;;;11017201;32;20340;-75
2023/05/25 23:55:33;;;;;;;6.40;5.12;;;23.80;76.50;;;;;;11016983;32;20048;-74
